sensor_id;sensor_type;location;lat;lon;timestamp;pressure;altitude;pressure_sealevel;temperature;humidity
29163;BME280;20331;53.144;8.208;2023-07-30T00:07:34;100826.47;;;18.12;100.00
29163;BME280;20331;53.144;8.208;2023-07-30T00:17:56;100827.44;;;18.11;100.00
29163;BME280;20331;53.144;8.208;2023-07-30T00:28:17;100839.13;;;18.05;100.00
29163;BME280;20331;53.144;8.208;2023-07-30T00:38:39;100844.16;;;17.94;100.00
29163;BME280;20331;53.144;8.208;2023-07-30T00:49:00;100836.28;;;17.80;100.00
29163;BME280;20331;53.144;8.208;2023-07-30T00:59:22;100836.66;;;17.74;100.00
29163;BME280;20331;53.144;8.208;2023-07-30T01:09:43;100849.19;;;17.69;100.00
29163;BME280;20331;53.144;8.208;2023-07-30T01:20:05;100853.59;;;17.53;100.00
29163;BME280;20331;53.144;8.208;2023-07-30T01:30:32;100862.66;;;17.47;100.00
29163;BME280;20331;53.144;8.208;2023-07-30T01:40:55;100866.81;;;17.36;100.00
29163;BME280;20331;53.144;8.208;2023-07-30T01:51:16;100861.25;;;17.26;100.00
29163;BME280;20331;53.144;8.208;2023-07-30T02:01:38;100868.75;;;17.17;100.00
29163;BME280;20331;53.144;8.208;2023-07-30T02:12:00;100866.47;;;17.10;100.00
29163;BME280;20331;53.144;8.208;2023-07-30T02:22:23;100872.84;;;17.06;100.00
29163;BME280;20331;53.144;8.208;2023-07-30T02:32:44;100883.53;;;17.02;100.00
29163;BME280;20331;53.144;8.208;2023-07-30T02:43:06;100879.69;;;16.93;100.00
29163;BME280;20331;53.144;8.208;2023-07-30T02:53:27;100887.09;;;16.85;100.00
29163;BME280;20331;53.144;8.208;2023-07-30T03:03:49;100890.19;;;16.76;100.00
29163;BME280;20331;53.144;8.208;2023-07-30T03:14:11;100885.31;;;16.70;100.00
29163;BME280;20331;53.144;8.208;2023-07-30T03:24:32;100892.56;;;16.65;100.00
29163;BME280;20331;53.144;8.208;2023-07-30T03:34:54;100888.31;;;16.63;100.00
29163;BME280;20331;53.144;8.208;2023-07-30T03:45:15;100879.81;;;16.59;100.00
29163;BME280;20331;53.144;8.208;2023-07-30T03:55:37;100886.28;;;16.52;100.00
29163;BME280;20331;53.144;8.208;2023-07-30T04:05:58;100888.91;;;16.52;100.00
29163;BME280;20331;53.144;8.208;2023-07-30T04:16:20;100882.28;;;16.45;100.00
29163;BME280;20331;53.144;8.208;2023-07-30T04:26:42;100882.63;;;16.39;100.00
29163;BME280;20331;53.144;8.208;2023-07-30T04:37:03;100891.88;;;16.29;100.00
29163;BME280;20331;53.144;8.208;2023-07-30T04:47:25;100898.19;;;16.25;100.00
29163;BME280;20331;53.144;8.208;2023-07-30T04:57:46;100897.09;;;16.29;100.00
29163;BME280;20331;53.144;8.208;2023-07-30T05:08:08;100901.06;;;16.36;99.32
29163;BME280;20331;53.144;8.208;2023-07-30T05:18:29;100898.47;;;16.36;100.00
29163;BME280;20331;53.144;8.208;2023-07-30T05:28:51;100893.06;;;16.39;99.72
29163;BME280;20331;53.144;8.208;2023-07-30T05:39:12;100900.38;;;16.50;99.54
29163;BME280;20331;53.144;8.208;2023-07-30T05:49:34;100900.88;;;16.56;99.77
29163;BME280;20331;53.144;8.208;2023-07-30T05:59:55;100906.47;;;16.66;98.19
29163;BME280;20331;53.144;8.208;2023-07-30T06:10:17;100899.41;;;16.83;98.31
29163;BME280;20331;53.144;8.208;2023-07-30T06:20:38;100893.56;;;16.94;98.86
29163;BME280;20331;53.144;8.208;2023-07-30T06:31:03;100895.09;;;17.14;97.76
29163;BME280;20331;53.144;8.208;2023-07-30T06:41:25;100899.06;;;17.21;98.17
29163;BME280;20331;53.144;8.208;2023-07-30T06:51:47;100897.31;;;17.51;97.17
29163;BME280;20331;53.144;8.208;2023-07-30T07:02:08;100913.03;;;17.51;97.58
29163;BME280;20331;53.144;8.208;2023-07-30T07:12:29;100924.13;;;17.70;96.41
29163;BME280;20331;53.144;8.208;2023-07-30T07:22:51;100916.28;;;17.99;95.41
29163;BME280;20331;53.144;8.208;2023-07-30T07:33:12;100931.00;;;18.16;94.25
29163;BME280;20331;53.144;8.208;2023-07-30T07:43:34;100938.31;;;18.39;94.80
29163;BME280;20331;53.144;8.208;2023-07-30T07:53:55;100940.78;;;18.56;93.27
29163;BME280;20331;53.144;8.208;2023-07-30T08:04:17;100955.75;;;18.54;93.31
29163;BME280;20331;53.144;8.208;2023-07-30T08:14:39;100938.81;;;18.46;93.56
29163;BME280;20331;53.144;8.208;2023-07-30T08:25:01;100934.59;;;18.43;93.47
29163;BME280;20331;53.144;8.208;2023-07-30T08:35:22;100928.25;;;18.47;94.45
29163;BME280;20331;53.144;8.208;2023-07-30T08:45:44;100930.78;;;18.49;92.92
29163;BME280;20331;53.144;8.208;2023-07-30T08:56:06;100932.56;;;18.62;93.12
29163;BME280;20331;53.144;8.208;2023-07-30T09:06:28;100949.00;;;18.92;92.30
29163;BME280;20331;53.144;8.208;2023-07-30T09:16:56;100938.88;;;19.27;89.51
29163;BME280;20331;53.144;8.208;2023-07-30T09:27:19;100935.75;;;19.49;88.28
29163;BME280;20331;53.144;8.208;2023-07-30T09:37:44;100946.25;;;19.49;86.42
29163;BME280;20331;53.144;8.208;2023-07-30T09:48:06;100933.47;;;19.57;84.62
29163;BME280;20331;53.144;8.208;2023-07-30T09:58:27;100943.00;;;19.84;80.49
29163;BME280;20331;53.144;8.208;2023-07-30T10:08:49;100942.00;;;20.12;76.78
29163;BME280;20331;53.144;8.208;2023-07-30T10:19:14;100938.19;;;20.03;78.68
29163;BME280;20331;53.144;8.208;2023-07-30T10:29:36;100937.38;;;20.03;77.02
29163;BME280;20331;53.144;8.208;2023-07-30T10:40:12;100924.16;;;20.30;79.04
29163;BME280;20331;53.144;8.208;2023-07-30T10:50:37;100910.44;;;20.62;78.77
29163;BME280;20331;53.144;8.208;2023-07-30T11:00:58;100935.72;;;20.52;75.07
29163;BME280;20331;53.144;8.208;2023-07-30T11:11:20;100963.19;;;20.48;76.79
29163;BME280;20331;53.144;8.208;2023-07-30T11:21:47;101036.28;;;19.08;76.80
29163;BME280;20331;53.144;8.208;2023-07-30T11:32:10;101080.22;;;16.91;93.74
29163;BME280;20331;53.144;8.208;2023-07-30T11:42:32;101078.97;;;16.13;98.03
29163;BME280;20331;53.144;8.208;2023-07-30T11:52:55;101053.00;;;16.10;99.74
29163;BME280;20331;53.144;8.208;2023-07-30T12:03:17;101043.25;;;16.13;100.00
29163;BME280;20331;53.144;8.208;2023-07-30T12:13:45;101043.66;;;16.57;100.00
29163;BME280;20331;53.144;8.208;2023-07-30T12:24:07;101054.78;;;16.78;99.72
29163;BME280;20331;53.144;8.208;2023-07-30T12:34:29;101045.63;;;16.86;100.00
29163;BME280;20331;53.144;8.208;2023-07-30T12:44:50;101045.22;;;17.27;100.00
29163;BME280;20331;53.144;8.208;2023-07-30T12:55:12;101031.03;;;17.62;96.24
29163;BME280;20331;53.144;8.208;2023-07-30T13:05:33;100996.66;;;18.13;95.27
29163;BME280;20331;53.144;8.208;2023-07-30T13:15:54;100985.53;;;18.67;92.42
29163;BME280;20331;53.144;8.208;2023-07-30T13:26:19;100969.78;;;19.10;92.48
29163;BME280;20331;53.144;8.208;2023-07-30T13:36:41;100967.75;;;19.41;87.25
29163;BME280;20331;53.144;8.208;2023-07-30T13:47:02;100974.25;;;19.22;92.01
29163;BME280;20331;53.144;8.208;2023-07-30T13:57:24;101028.03;;;18.86;93.45
29163;BME280;20331;53.144;8.208;2023-07-30T14:07:46;101009.00;;;17.35;97.53
29163;BME280;20331;53.144;8.208;2023-07-30T14:18:07;101021.06;;;17.37;100.00
29163;BME280;20331;53.144;8.208;2023-07-30T14:28:29;101015.75;;;17.70;99.58
29163;BME280;20331;53.144;8.208;2023-07-30T14:38:50;101004.75;;;17.94;100.00
29163;BME280;20331;53.144;8.208;2023-07-30T14:49:12;101008.81;;;18.14;95.71
29163;BME280;20331;53.144;8.208;2023-07-30T14:59:33;101003.50;;;18.30;92.92
29163;BME280;20331;53.144;8.208;2023-07-30T15:09:56;100995.63;;;18.59;90.44
29163;BME280;20331;53.144;8.208;2023-07-30T15:20:18;101003.88;;;18.81;86.33
29163;BME280;20331;53.144;8.208;2023-07-30T15:30:40;101013.69;;;19.20;83.04
29163;BME280;20331;53.144;8.208;2023-07-30T15:41:04;101008.88;;;19.55;78.47
29163;BME280;20331;53.144;8.208;2023-07-30T15:51:26;101000.84;;;19.44;80.12
29163;BME280;20331;53.144;8.208;2023-07-30T16:01:50;100998.56;;;19.52;81.45
29163;BME280;20331;53.144;8.208;2023-07-30T16:12:11;101001.81;;;20.09;75.14
29163;BME280;20331;53.144;8.208;2023-07-30T16:22:34;100992.63;;;20.28;73.83
29163;BME280;20331;53.144;8.208;2023-07-30T16:32:55;101009.13;;;20.03;76.47
29163;BME280;20331;53.144;8.208;2023-07-30T16:43:17;101022.50;;;20.13;73.05
29163;BME280;20331;53.144;8.208;2023-07-30T16:53:41;101036.50;;;19.87;73.25
29163;BME280;20331;53.144;8.208;2023-07-30T17:04:02;101050.50;;;19.61;73.19
29163;BME280;20331;53.144;8.208;2023-07-30T17:14:24;101068.00;;;19.34;71.81
29163;BME280;20331;53.144;8.208;2023-07-30T17:24:45;101067.59;;;19.40;76.41
29163;BME280;20331;53.144;8.208;2023-07-30T17:35:07;101085.88;;;19.41;74.65
29163;BME280;20331;53.144;8.208;2023-07-30T17:45:29;101086.38;;;19.34;77.46
29163;BME280;20331;53.144;8.208;2023-07-30T17:55:50;101099.09;;;19.12;77.02
29163;BME280;20331;53.144;8.208;2023-07-30T18:06:12;101092.03;;;18.98;77.77
29163;BME280;20331;53.144;8.208;2023-07-30T18:16:33;101110.41;;;18.84;79.83
29163;BME280;20331;53.144;8.208;2023-07-30T18:26:55;101076.25;;;18.70;80.04
29163;BME280;20331;53.144;8.208;2023-07-30T18:37:16;101068.50;;;18.68;78.64
29163;BME280;20331;53.144;8.208;2023-07-30T18:47:38;101083.44;;;18.52;81.20
29163;BME280;20331;53.144;8.208;2023-07-30T18:57:59;101086.81;;;18.39;84.14
29163;BME280;20331;53.144;8.208;2023-07-30T19:08:21;101088.00;;;18.19;85.13
29163;BME280;20331;53.144;8.208;2023-07-30T19:18:43;101091.75;;;17.99;88.21
29163;BME280;20331;53.144;8.208;2023-07-30T19:29:04;101091.94;;;17.81;88.97
29163;BME280;20331;53.144;8.208;2023-07-30T19:39:25;101093.34;;;17.71;89.17
29163;BME280;20331;53.144;8.208;2023-07-30T19:49:47;101097.41;;;17.61;91.27
29163;BME280;20331;53.144;8.208;2023-07-30T20:00:09;101084.56;;;17.56;91.32
29163;BME280;20331;53.144;8.208;2023-07-30T20:10:31;101074.09;;;17.56;91.46
29163;BME280;20331;53.144;8.208;2023-07-30T20:20:53;101075.81;;;17.57;90.98
29163;BME280;20331;53.144;8.208;2023-07-30T20:31:14;101055.09;;;17.53;91.39
29163;BME280;20331;53.144;8.208;2023-07-30T20:41:36;101035.13;;;17.52;91.04
29163;BME280;20331;53.144;8.208;2023-07-30T20:51:57;101035.47;;;17.61;90.55
29163;BME280;20331;53.144;8.208;2023-07-30T21:02:19;101040.41;;;17.66;90.87
29163;BME280;20331;53.144;8.208;2023-07-30T21:12:40;101028.28;;;17.65;90.36
29163;BME280;20331;53.144;8.208;2023-07-30T21:23:02;101020.06;;;17.71;87.03
29163;BME280;20331;53.144;8.208;2023-07-30T21:33:24;101000.25;;;17.67;87.13
29163;BME280;20331;53.144;8.208;2023-07-30T21:43:45;101001.81;;;17.69;86.03
29163;BME280;20331;53.144;8.208;2023-07-30T21:54:06;100985.53;;;17.64;86.40
29163;BME280;20331;53.144;8.208;2023-07-30T22:04:28;100989.00;;;17.65;85.97
29163;BME280;20331;53.144;8.208;2023-07-30T22:14:49;100975.34;;;17.60;85.86
29163;BME280;20331;53.144;8.208;2023-07-30T22:25:11;100960.75;;;17.56;86.48
29163;BME280;20331;53.144;8.208;2023-07-30T22:35:32;100953.91;;;17.53;87.06
29163;BME280;20331;53.144;8.208;2023-07-30T22:45:54;100955.09;;;17.48;87.98
29163;BME280;20331;53.144;8.208;2023-07-30T22:56:15;100951.19;;;17.55;87.98
29163;BME280;20331;53.144;8.208;2023-07-30T23:06:37;100947.00;;;17.52;89.09
29163;BME280;20331;53.144;8.208;2023-07-30T23:16:58;100934.72;;;17.53;89.74
29163;BME280;20331;53.144;8.208;2023-07-30T23:27:20;100924.09;;;17.56;89.16
29163;BME280;20331;53.144;8.208;2023-07-30T23:37:41;100928.25;;;17.60;90.36
29163;BME280;20331;53.144;8.208;2023-07-30T23:48:03;100894.94;;;17.62;90.71
29163;BME280;20331;53.144;8.208;2023-07-30T23:58:25;100888.03;;;17.61;90.72
